Araucaria, Brazil
Current Conditions -  °F | °C
As of 6:00 PM on Friday 24 Oct 2014 (Local Time) from SBCT Reporting Station
Scattered Clouds Scattered Clouds  
Wind Chill: 21°   Ceiling: Unl
Heat Index: 21°   Visibility: 5mi
Dew Point: 17°   Wind: 9mph
Humidity: 78%   Direction: 130°SE
Pressure: 30"   Gusts: NA
Location:  25.58°S, 49.4°W
Report Text: SBCT 242000Z 13008KT 8000 FEW005 SCT050 21/17 Q1016
Loading
Personal Weather Stations






























Interactive Weather Map
Tropical Storm Tracking
New forecast layout! Learn more

10-Day Weather Forecast

Advertisements
Track Severe Weather on mobile